Time,TemperatureF,DewpointF,PressureIn,WindDirection,WindDirectionDegrees,WindSpeedMPH,WindSpeedGustMPH,Humidity,HourlyPrecipIn,Conditions,Clouds,dailyrainin,SoftwareType,DateUTC
2013-01-11 00:07:00,35.2,32.3,30.15,East,80,10.0,10.0,89,0.00,,,0.00,Wunderground v.1.15,2013-01-11 05:07:00,
2013-01-11 00:12:00,35.2,32.3,30.15,ENE,78,10.0,11.0,89,0.00,,,0.01,Wunderground v.1.15,2013-01-11 05:12:00,
2013-01-11 00:17:00,35.3,32.4,30.15,East,80,10.0,10.0,89,0.00,,,0.01,Wunderground v.1.15,2013-01-11 05:17:00,
2013-01-11 00:22:00,35.3,32.4,30.15,East,81,9.0,10.0,89,0.00,,,0.01,Wunderground v.1.15,2013-01-11 05:22:00,
2013-01-11 00:27:00,35.3,32.4,30.14,East,88,10.0,10.0,89,0.00,,,0.01,Wunderground v.1.15,2013-01-11 05:27:00,
2013-01-11 00:32:00,35.3,32.4,30.14,East,83,10.0,10.0,89,0.00,,,0.01,Wunderground v.1.15,2013-01-11 05:32:00,
2013-01-11 00:37:00,35.3,32.4,30.14,East,83,9.0,9.0,89,0.00,,,0.01,Wunderground v.1.15,2013-01-11 05:37:00,
2013-01-11 00:47:00,35.3,32.4,30.14,East,88,8.0,8.0,89,0.00,,,0.01,Wunderground v.1.15,2013-01-11 05:47:00,
2013-01-11 00:52:00,35.4,32.5,30.14,East,84,8.0,8.0,89,0.00,,,0.01,Wunderground v.1.15,2013-01-11 05:52:00,
2013-01-11 01:02:00,35.4,32.2,30.13,ENE,73,8.0,8.0,88,0.00,,,0.01,Wunderground v.1.15,2013-01-11 06:02:00,
2013-01-11 01:12:00,35.4,32.2,30.12,East,82,8.0,9.0,88,0.00,,,0.01,Wunderground v.1.15,2013-01-11 06:12:00,
2013-01-11 01:17:00,35.4,32.2,30.13,East,84,7.0,7.0,88,0.00,,,0.01,Wunderground v.1.15,2013-01-11 06:17:00,
2013-01-11 01:27:00,35.5,32.3,30.13,East,82,5.0,5.0,88,0.00,,,0.01,Wunderground v.1.15,2013-01-11 06:27:00,
2013-01-11 01:32:00,35.4,32.2,30.12,East,81,5.0,5.0,88,0.00,,,0.01,Wunderground v.1.15,2013-01-11 06:32:00,
2013-01-11 01:42:00,35.3,32.4,30.12,ENE,78,5.0,5.0,89,0.00,,,0.02,Wunderground v.1.15,2013-01-11 06:42:00,
2013-01-11 01:47:00,35.2,32.3,30.11,East,79,5.0,6.0,89,0.00,,,0.02,Wunderground v.1.15,2013-01-11 06:47:00,
2013-01-11 01:52:00,35.1,32.2,30.11,ENE,78,6.0,6.0,89,0.04,,,0.03,Wunderground v.1.15,2013-01-11 06:52:00,
2013-01-11 02:02:00,34.9,32.0,30.11,East,87,6.0,9.0,89,0.21,,,0.06,Wunderground v.1.15,2013-01-11 07:02:00,
2013-01-11 02:12:00,34.8,32.2,30.11,East,84,5.0,7.0,90,0.29,,,0.09,Wunderground v.1.15,2013-01-11 07:12:00,
2013-01-11 02:17:00,34.8,32.2,30.09,East,80,6.0,10.0,90,0.34,,,0.12,Wunderground v.1.15,2013-01-11 07:17:00,
2013-01-11 02:27:00,34.8,32.2,30.07,East,83,9.0,11.0,90,0.27,,,0.17,Wunderground v.1.15,2013-01-11 07:27:00,
2013-01-11 02:32:00,34.8,32.4,30.07,ENE,76,10.0,11.0,91,0.21,,,0.19,Wunderground v.1.15,2013-01-11 07:32:00,
2013-01-11 02:42:00,34.9,32.5,30.07,East,80,7.0,9.0,91,0.05,,,0.19,Wunderground v.1.15,2013-01-11 07:42:00,
2013-01-11 02:47:00,35.0,32.6,30.07,ENE,73,7.0,7.0,91,0.04,,,0.20,Wunderground v.1.15,2013-01-11 07:47:00,
2013-01-11 02:57:00,35.0,32.6,30.07,ENE,78,6.0,10.0,91,0.04,,,0.20,Wunderground v.1.15,2013-01-11 07:57:00,
2013-01-11 03:07:00,35.2,32.8,30.06,East,79,6.0,6.0,91,0.00,,,0.20,Wunderground v.1.15,2013-01-11 08:07:00,
2013-01-11 03:12:00,35.2,32.8,30.06,ENE,78,6.0,6.0,91,0.00,,,0.20,Wunderground v.1.15,2013-01-11 08:12:00,
2013-01-11 03:22:00,35.2,32.6,30.05,ENE,75,5.0,5.0,90,0.00,,,0.21,Wunderground v.1.15,2013-01-11 08:22:00,
2013-01-11 03:32:00,35.1,32.5,30.04,ENE,74,5.0,5.0,90,0.00,,,0.21,Wunderground v.1.15,2013-01-11 08:32:00,
2013-01-11 03:37:00,35.2,32.6,30.04,ENE,74,5.0,5.0,90,0.00,,,0.21,Wunderground v.1.15,2013-01-11 08:37:00,
2013-01-11 03:42:00,35.2,32.6,30.03,ENE,74,5.0,5.0,90,0.00,,,0.22,Wunderground v.1.15,2013-01-11 08:42:00,
2013-01-11 03:47:00,35.3,32.7,30.02,ENE,78,6.0,8.0,90,0.00,,,0.22,Wunderground v.1.15,2013-01-11 08:47:00,
2013-01-11 03:52:00,35.3,32.7,30.02,ENE,73,6.0,8.0,90,0.00,,,0.22,Wunderground v.1.15,2013-01-11 08:52:00,
2013-01-11 04:02:00,35.3,32.4,30.01,ENE,65,7.0,7.0,89,0.00,,,0.22,Wunderground v.1.15,2013-01-11 09:02:00,
2013-01-11 04:12:00,35.1,32.2,30.00,ENE,64,6.0,7.0,89,0.00,,,0.22,Wunderground v.1.15,2013-01-11 09:12:00,
2013-01-11 04:17:00,35.1,32.2,30.00,ENE,64,6.0,6.0,89,0.00,,,0.22,Wunderground v.1.15,2013-01-11 09:17:00,
2013-01-11 04:27:00,35.2,32.3,30.00,ENE,64,4.0,4.0,89,0.00,,,0.22,Wunderground v.1.15,2013-01-11 09:27:00,
2013-01-11 04:32:00,35.2,32.3,30.00,ENE,64,4.0,5.0,89,0.00,,,0.22,Wunderground v.1.15,2013-01-11 09:32:00,
2013-01-11 04:42:00,35.3,32.4,29.99,ENE,64,6.0,8.0,89,0.00,,,0.22,Wunderground v.1.15,2013-01-11 09:42:00,
2013-01-11 04:47:00,35.4,32.5,29.98,ENE,63,7.0,8.0,89,0.00,,,0.22,Wunderground v.1.15,2013-01-11 09:47:00,
2013-01-11 04:52:00,35.4,32.5,29.98,ENE,63,7.0,8.0,89,0.00,,,0.22,Wunderground v.1.15,2013-01-11 09:52:00,
2013-01-11 05:02:00,35.4,32.5,29.97,ENE,63,6.0,7.0,89,0.00,,,0.22,Wunderground v.1.15,2013-01-11 10:02:00,
2013-01-11 05:12:00,35.4,32.5,29.96,ENE,62,8.0,8.0,89,0.00,,,0.22,Wunderground v.1.15,2013-01-11 10:12:00,
2013-01-11 05:17:00,35.5,32.6,29.95,ENE,62,7.0,7.0,89,0.00,,,0.22,Wunderground v.1.15,2013-01-11 10:17:00,
2013-01-11 05:27:00,35.6,32.7,29.95,ENE,62,5.0,5.0,89,0.00,,,0.22,Wunderground v.1.15,2013-01-11 10:27:00,
2013-01-11 05:32:00,35.7,32.8,29.94,ENE,62,5.0,8.0,89,0.00,,,0.22,Wunderground v.1.15,2013-01-11 10:32:00,
2013-01-11 05:37:00,35.7,32.8,29.94,ENE,62,5.0,5.0,89,0.00,,,0.22,Wunderground v.1.15,2013-01-11 10:37:00,
2013-01-11 05:47:00,35.8,32.9,29.93,ENE,62,3.0,4.0,89,0.00,,,0.22,Wunderground v.1.15,2013-01-11 10:47:00,
2013-01-11 05:52:00,35.9,33.0,29.94,ENE,62,4.0,4.0,89,0.00,,,0.22,Wunderground v.1.15,2013-01-11 10:52:00,
2013-01-11 06:02:00,36.0,33.1,29.93,ENE,62,4.0,5.0,89,0.00,,,0.22,Wunderground v.1.15,2013-01-11 11:02:00,
2013-01-11 06:12:00,36.1,33.2,29.93,ENE,62,3.0,4.0,89,0.00,,,0.22,Wunderground v.1.15,2013-01-11 11:12:00,
2013-01-11 06:17:00,36.1,33.2,29.92,ENE,62,3.0,3.0,89,0.00,,,0.23,Wunderground v.1.15,2013-01-11 11:17:00,
2013-01-11 06:22:00,36.1,33.5,29.92,ENE,62,3.0,3.0,90,0.15,,,0.25,Wunderground v.1.15,2013-01-11 11:22:00,
2013-01-11 06:32:00,36.1,33.5,29.92,ENE,62,2.0,3.0,90,0.12,,,0.26,Wunderground v.1.15,2013-01-11 11:32:00,
2013-01-11 06:37:00,36.2,33.5,29.92,ENE,62,2.0,2.0,90,0.06,,,0.26,Wunderground v.1.15,2013-01-11 11:37:00,
2013-01-11 06:47:00,36.4,34.0,29.93,ENE,62,1.0,1.0,91,0.00,,,0.26,Wunderground v.1.15,2013-01-11 11:47:00,
2013-01-11 06:52:00,36.5,34.1,29.93,ENE,62,0.0,1.0,91,0.00,,,0.26,Wunderground v.1.15,2013-01-11 11:52:00,
2013-01-11 07:02:00,36.7,34.3,29.93,ENE,62,0.0,1.0,91,0.18,,,0.29,Wunderground v.1.15,2013-01-11 12:02:00,
2013-01-11 07:12:00,36.8,34.4,29.92,ENE,62,0.0,0.0,91,0.17,,,0.32,Wunderground v.1.15,2013-01-11 12:12:00,
2013-01-11 07:17:00,36.8,34.4,29.93,ENE,62,0.0,0.0,91,0.24,,,0.34,Wunderground v.1.15,2013-01-11 12:17:00,
2013-01-11 07:27:00,36.9,34.5,29.93,ENE,62,2.0,2.0,91,0.26,,,0.38,Wunderground v.1.15,2013-01-11 12:27:00,
2013-01-11 07:32:00,37.0,34.9,29.93,ENE,62,2.0,3.0,92,0.23,,,0.40,Wunderground v.1.15,2013-01-11 12:32:00,
2013-01-11 07:37:00,37.3,35.2,29.93,ENE,62,3.0,3.0,92,0.21,,,0.41,Wunderground v.1.15,2013-01-11 12:37:00,
2013-01-11 07:47:00,38.1,36.0,29.92,NE,43,2.0,2.0,92,0.24,,,0.45,Wunderground v.1.15,2013-01-11 12:47:00,
2013-01-11 07:52:00,38.5,36.4,29.92,NE,43,0.0,2.0,92,0.23,,,0.47,Wunderground v.1.15,2013-01-11 12:52:00,
2013-01-11 08:02:00,40.1,38.2,29.91,NE,45,1.0,3.0,93,0.17,,,0.50,Wunderground v.1.15,2013-01-11 13:02:00,
2013-01-11 08:07:00,41.1,39.2,29.90,SE,124,3.0,5.0,93,0.15,,,0.51,Wunderground v.1.15,2013-01-11 13:07:00,
2013-01-11 08:12:00,42.1,40.2,29.90,SSE,148,5.0,6.0,93,0.08,,,0.52,Wunderground v.1.15,2013-01-11 13:12:00,
2013-01-11 08:17:00,43.6,42.0,29.90,South,177,6.0,8.0,94,0.08,,,0.52,Wunderground v.1.15,2013-01-11 13:17:00,
2013-01-11 08:27:00,45.9,44.3,29.90,South,183,9.0,9.0,94,0.04,,,0.52,Wunderground v.1.15,2013-01-11 13:27:00,
2013-01-11 08:32:00,46.3,44.7,29.90,South,178,9.0,9.0,94,0.00,,,0.52,Wunderground v.1.15,2013-01-11 13:32:00,
2013-01-11 08:42:00,47.1,45.5,29.89,South,182,11.0,12.0,94,0.00,,,0.52,Wunderground v.1.15,2013-01-11 13:42:00,
2013-01-11 08:47:00,47.2,45.6,29.89,South,188,11.0,11.0,94,0.00,,,0.52,Wunderground v.1.15,2013-01-11 13:47:00,
2013-01-11 08:52:00,47.3,45.4,29.88,South,186,11.0,11.0,93,0.00,,,0.52,Wunderground v.1.15,2013-01-11 13:52:00,
2013-01-11 09:02:00,47.2,45.0,29.86,SSE,168,12.0,16.0,92,0.00,,,0.52,Wunderground v.1.15,2013-01-11 14:02:00,
2013-01-11 09:12:00,47.6,45.4,29.82,SSE,161,11.0,11.0,92,0.00,,,0.52,Wunderground v.1.15,2013-01-11 14:12:00,
2013-01-11 09:17:00,47.8,45.6,29.80,SSE,150,11.0,12.0,92,0.00,,,0.52,Wunderground v.1.15,2013-01-11 14:17:00,
2013-01-11 09:27:00,48.3,46.1,29.80,SSE,151,13.0,13.0,92,0.00,,,0.52,Wunderground v.1.15,2013-01-11 14:27:00,
2013-01-11 09:32:00,48.5,46.3,29.79,SSE,155,13.0,13.0,92,0.00,,,0.52,Wunderground v.1.15,2013-01-11 14:32:00,
2013-01-11 09:42:00,49.3,47.1,29.79,South,182,12.0,16.0,92,0.00,,,0.52,Wunderground v.1.15,2013-01-11 14:42:00,
2013-01-11 09:47:00,49.8,47.6,29.79,SSE,163,13.0,15.0,92,0.00,,,0.52,Wunderground v.1.15,2013-01-11 14:47:00,
2013-01-11 09:57:00,50.6,48.1,29.77,SSE,153,14.0,14.0,91,0.00,,,0.52,Wunderground v.1.15,2013-01-11 14:57:00,
2013-01-11 10:02:00,50.8,48.3,29.74,SSE,157,12.0,14.0,91,0.00,,,0.52,Wunderground v.1.15,2013-01-11 15:02:00,
2013-01-11 10:12:00,50.6,47.8,29.80,SSW,196,11.0,14.0,90,0.00,,,0.52,Wunderground v.1.15,2013-01-11 15:12:00,
2013-01-11 10:17:00,50.7,47.9,29.81,SSW,196,13.0,18.0,90,0.00,,,0.52,Wunderground v.1.15,2013-01-11 15:17:00,
2013-01-11 10:27:00,50.8,48.0,29.81,SSW,200,16.0,16.0,90,0.00,,,0.52,Wunderground v.1.15,2013-01-11 15:27:00,
2013-01-11 10:32:00,50.9,47.8,29.81,SSW,195,16.0,16.0,89,0.00,,,0.52,Wunderground v.1.15,2013-01-11 15:32:00,
2013-01-11 10:42:00,51.5,48.4,29.81,South,190,17.0,19.0,89,0.00,,,0.52,Wunderground v.1.15,2013-01-11 15:42:00,
2013-01-11 10:47:00,51.6,48.5,29.81,SSW,192,14.0,16.0,89,0.00,,,0.52,Wunderground v.1.15,2013-01-11 15:47:00,
2013-01-11 10:57:00,52.5,49.4,29.81,SSW,192,14.0,19.0,89,0.00,,,0.52,Wunderground v.1.15,2013-01-11 15:57:00,
2013-01-11 11:07:00,53.4,49.9,29.81,South,191,17.0,17.0,88,0.00,,,0.52,Wunderground v.1.15,2013-01-11 16:07:00,
2013-01-11 11:12:00,53.7,49.9,29.82,SSW,199,15.0,17.0,87,0.00,,,0.52,Wunderground v.1.15,2013-01-11 16:12:00,
2013-01-11 11:17:00,53.6,49.8,29.82,SW,223,15.0,15.0,87,0.00,,,0.52,Wunderground v.1.15,2013-01-11 16:17:00,
2013-01-11 11:27:00,53.5,50.0,29.82,SSW,200,13.0,13.0,88,0.00,,,0.52,Wunderground v.1.15,2013-01-11 16:27:00,
2013-01-11 11:32:00,53.5,50.0,29.82,SW,221,12.0,19.0,88,0.00,,,0.52,Wunderground v.1.15,2013-01-11 16:32:00,
2013-01-11 11:42:00,53.5,50.0,29.81,South,191,12.0,19.0,88,0.00,,,0.52,Wunderground v.1.15,2013-01-11 16:42:00,
2013-01-11 11:47:00,53.5,50.0,29.81,SSW,194,12.0,12.0,88,0.00,,,0.52,Wunderground v.1.15,2013-01-11 16:47:00,
2013-01-11 11:57:00,53.5,50.0,29.81,SSW,209,13.0,13.0,88,0.00,,,0.52,Wunderground v.1.15,2013-01-11 16:57:00,
2013-01-11 12:02:00,53.5,50.0,29.81,SW,219,11.0,13.0,88,0.00,,,0.52,Wunderground v.1.15,2013-01-11 17:02:00,
2013-01-11 12:12:00,53.7,50.2,29.80,SSW,207,11.0,11.0,88,0.00,,,0.52,Wunderground v.1.15,2013-01-11 17:12:00,
2013-01-11 12:17:00,53.9,50.4,29.80,SW,223,12.0,12.0,88,0.00,,,0.52,Wunderground v.1.15,2013-01-11 17:17:00,
2013-01-11 12:27:00,54.0,50.5,29.80,SSW,204,13.0,13.0,88,0.00,,,0.52,Wunderground v.1.15,2013-01-11 17:27:00,
2013-01-11 12:32:00,54.0,50.8,29.79,SSW,203,13.0,13.0,89,0.00,,,0.52,Wunderground v.1.15,2013-01-11 17:32:00,
2013-01-11 12:42:00,54.0,51.1,29.79,South,187,12.0,13.0,90,0.00,,,0.52,Wunderground v.1.15,2013-01-11 17:42:00,
2013-01-11 12:52:00,54.3,51.4,29.78,SSW,210,10.0,11.0,90,0.00,,,0.52,Wunderground v.1.15,2013-01-11 17:52:00,
2013-01-11 12:57:00,54.8,51.9,29.79,SW,231,10.0,12.0,90,0.00,,,0.52,Wunderground v.1.15,2013-01-11 17:57:00,
2013-01-11 13:07:00,55.4,52.2,29.79,SW,223,11.0,11.0,89,0.00,,,0.52,Wunderground v.1.15,2013-01-11 18:07:00,
2013-01-11 13:12:00,55.6,52.4,29.78,WSW,240,11.0,12.0,89,0.00,,,0.52,Wunderground v.1.15,2013-01-11 18:12:00,
2013-01-11 13:17:00,56.0,52.8,29.78,SW,232,10.0,14.0,89,0.00,,,0.52,Wunderground v.1.15,2013-01-11 18:17:00,
2013-01-11 13:27:00,56.6,52.8,29.79,WSW,237,11.0,11.0,87,0.00,,,0.52,Wunderground v.1.15,2013-01-11 18:27:00,
2013-01-11 13:37:00,56.2,52.4,29.79,SW,230,11.0,11.0,87,0.00,,,0.52,Wunderground v.1.15,2013-01-11 18:37:00,
2013-01-11 13:42:00,56.6,53.1,29.79,SW,227,11.0,11.0,88,0.00,,,0.52,Wunderground v.1.15,2013-01-11 18:42:00,
2013-01-11 13:52:00,57.8,53.6,29.79,SW,225,10.0,11.0,86,0.00,,,0.52,Wunderground v.1.15,2013-01-11 18:52:00,
2013-01-11 13:57:00,57.5,53.3,29.79,WSW,244,11.0,13.0,86,0.00,,,0.52,Wunderground v.1.15,2013-01-11 18:57:00,
2013-01-11 14:07:00,57.0,52.2,29.79,SW,227,12.0,15.0,84,0.00,,,0.52,Wunderground v.1.15,2013-01-11 19:07:00,
2013-01-11 14:12:00,57.3,52.2,29.79,WSW,250,15.0,15.0,83,0.00,,,0.52,Wunderground v.1.15,2013-01-11 19:12:00,
2013-01-11 14:17:00,57.8,52.3,29.79,SW,235,16.0,16.0,82,0.00,,,0.52,Wunderground v.1.15,2013-01-11 19:17:00,
2013-01-11 14:22:00,57.8,52.3,29.79,SW,227,15.0,16.0,82,0.00,,,0.52,Wunderground v.1.15,2013-01-11 19:22:00,
2013-01-11 14:32:00,58.5,53.0,29.79,WSW,243,14.0,14.0,82,0.00,,,0.52,Wunderground v.1.15,2013-01-11 19:32:00,
2013-01-11 14:37:00,58.8,53.3,29.80,WSW,238,14.0,14.0,82,0.00,,,0.52,Wunderground v.1.15,2013-01-11 19:37:00,
2013-01-11 14:47:00,58.9,52.7,29.80,SW,229,13.0,13.0,80,0.00,,,0.52,Wunderground v.1.15,2013-01-11 19:47:00,
2013-01-11 14:52:00,58.7,52.9,29.80,SW,219,13.0,13.0,81,0.00,,,0.52,Wunderground v.1.15,2013-01-11 19:52:00,
2013-01-11 14:57:00,59.1,53.3,29.80,SW,230,11.0,11.0,81,0.00,,,0.52,Wunderground v.1.15,2013-01-11 19:57:00,
2013-01-11 15:07:00,59.0,52.8,29.81,SW,232,11.0,13.0,80,0.00,,,0.52,Wunderground v.1.15,2013-01-11 20:07:00,
2013-01-11 15:17:00,58.6,52.4,29.81,WSW,242,12.0,12.0,80,0.00,,,0.52,Wunderground v.1.15,2013-01-11 20:17:00,
2013-01-11 15:22:00,58.5,52.0,29.81,SW,231,12.0,12.0,79,0.00,,,0.52,Wunderground v.1.15,2013-01-11 20:22:00,
2013-01-11 15:32:00,57.9,51.4,29.81,SW,227,12.0,12.0,79,0.00,,,0.52,Wunderground v.1.15,2013-01-11 20:32:00,
2013-01-11 15:37:00,57.8,50.6,29.81,WSW,240,12.0,12.0,77,0.00,,,0.52,Wunderground v.1.15,2013-01-11 20:37:00,
2013-01-11 15:42:00,57.6,50.8,29.82,WSW,248,12.0,12.0,78,0.00,,,0.52,Wunderground v.1.15,2013-01-11 20:42:00,
2013-01-11 15:52:00,57.6,50.8,29.82,SW,232,12.0,13.0,78,0.00,,,0.52,Wunderground v.1.15,2013-01-11 20:52:00,
2013-01-11 15:57:00,57.4,50.6,29.82,SW,222,11.0,15.0,78,0.00,,,0.52,Wunderground v.1.15,2013-01-11 20:57:00,
2013-01-11 16:07:00,57.1,50.3,29.82,SW,215,11.0,14.0,78,0.00,,,0.52,Wunderground v.1.15,2013-01-11 21:07:00,
2013-01-11 16:17:00,57.1,50.6,29.83,SW,230,12.0,12.0,79,0.00,,,0.52,Wunderground v.1.15,2013-01-11 21:17:00,
2013-01-11 16:22:00,57.0,50.5,29.83,SW,236,11.0,12.0,79,0.00,,,0.52,Wunderground v.1.15,2013-01-11 21:22:00,
2013-01-11 16:32:00,57.1,50.3,29.84,SW,231,10.0,10.0,78,0.00,,,0.52,Wunderground v.1.15,2013-01-11 21:32:00,
2013-01-11 16:37:00,57.0,50.2,29.84,WSW,253,10.0,11.0,78,0.00,,,0.52,Wunderground v.1.15,2013-01-11 21:37:00,
2013-01-11 16:47:00,56.4,50.0,29.85,SW,230,10.0,10.0,79,0.00,,,0.52,Wunderground v.1.15,2013-01-11 21:47:00,
2013-01-11 16:52:00,56.2,49.8,29.85,WSW,237,10.0,10.0,79,0.00,,,0.52,Wunderground v.1.15,2013-01-11 21:52:00,
2013-01-11 16:57:00,56.0,49.6,29.84,WSW,240,10.0,11.0,79,0.00,,,0.52,Wunderground v.1.15,2013-01-11 21:57:00,
2013-01-11 17:07:00,55.6,49.2,29.85,SW,236,10.0,10.0,79,0.00,,,0.52,Wunderground v.1.15,2013-01-11 22:07:00,
2013-01-11 17:12:00,55.4,49.0,29.85,WSW,249,9.0,16.0,79,0.00,,,0.52,Wunderground v.1.15,2013-01-11 22:12:00,
2013-01-11 17:17:00,55.1,49.0,29.85,WSW,237,9.0,9.0,80,0.00,,,0.52,Wunderground v.1.15,2013-01-11 22:17:00,
2013-01-11 17:27:00,54.2,48.5,29.85,SW,236,7.0,7.0,81,0.00,,,0.52,Wunderground v.1.15,2013-01-11 22:27:00,
2013-01-11 17:32:00,53.9,48.5,29.85,WSW,237,5.0,7.0,82,0.00,,,0.52,Wunderground v.1.15,2013-01-11 22:32:00,
2013-01-11 17:42:00,52.6,47.6,29.86,WSW,238,4.0,4.0,83,0.00,,,0.52,Wunderground v.1.15,2013-01-11 22:42:00,
2013-01-11 17:47:00,52.3,47.6,29.85,WSW,237,4.0,4.0,84,0.00,,,0.52,Wunderground v.1.15,2013-01-11 22:47:00,
2013-01-11 17:57:00,51.7,47.0,29.85,SW,234,3.0,3.0,84,0.00,,,0.52,Wunderground v.1.15,2013-01-11 22:57:00,
2013-01-11 18:07:00,51.2,46.8,29.86,SW,234,3.0,3.0,85,0.00,,,0.52,Wunderground v.1.15,2013-01-11 23:07:00,
2013-01-11 18:12:00,51.0,46.6,29.86,SW,234,3.0,3.0,85,0.00,,,0.52,Wunderground v.1.15,2013-01-11 23:12:00,
2013-01-11 18:22:00,50.9,46.9,29.86,SW,229,3.0,4.0,86,0.00,,,0.52,Wunderground v.1.15,2013-01-11 23:22:00,
2013-01-11 18:27:00,50.8,46.5,29.86,SW,225,4.0,5.0,85,0.00,,,0.52,Wunderground v.1.15,2013-01-11 23:27:00,
2013-01-11 18:37:00,50.7,46.7,29.87,SSW,210,5.0,5.0,86,0.00,,,0.52,Wunderground v.1.15,2013-01-11 23:37:00,
2013-01-11 18:47:00,51.0,47.0,29.87,SSW,211,5.0,5.0,86,0.00,,,0.52,Wunderground v.1.15,2013-01-11 23:47:00,
2013-01-11 18:52:00,51.0,46.6,29.87,SSW,209,5.0,6.0,85,0.00,,,0.52,Wunderground v.1.15,2013-01-11 23:52:00,
2013-01-11 18:57:00,50.9,46.6,29.87,SSW,209,5.0,5.0,85,0.00,,,0.52,Wunderground v.1.15,2013-01-11 23:57:00,
2013-01-11 19:07:00,50.8,46.5,29.88,SW,216,5.0,6.0,85,0.00,,,0.52,Wunderground v.1.15,2013-01-12 00:07:00,
2013-01-11 19:16:00,50.8,46.1,29.88,SW,214,5.0,6.0,84,0.00,,,0.52,Wunderground v.1.15,2013-01-12 00:16:00,
2013-01-11 19:26:00,50.5,45.8,29.88,SSW,209,5.0,5.0,84,0.00,,,0.52,Wunderground v.1.15,2013-01-12 00:26:00,
2013-01-11 19:31:00,50.4,46.1,29.89,SSW,212,5.0,5.0,85,0.00,,,0.52,Wunderground v.1.15,2013-01-12 00:31:00,
2013-01-11 19:41:00,50.3,46.0,29.87,SSW,202,5.0,6.0,85,0.00,,,0.52,Wunderground v.1.15,2013-01-12 00:41:00,
2013-01-11 19:51:00,50.3,46.0,29.88,SSW,201,6.0,6.0,85,0.00,,,0.52,Wunderground v.1.15,2013-01-12 00:51:00,
2013-01-11 19:56:00,50.3,46.3,29.88,SSW,198,5.0,6.0,86,0.00,,,0.52,Wunderground v.1.15,2013-01-12 00:56:00,
2013-01-11 20:06:00,50.2,46.2,29.88,SSW,200,5.0,5.0,86,0.00,,,0.52,Wunderground v.1.15,2013-01-12 01:06:00,
2013-01-11 20:11:00,50.1,46.1,29.87,SSW,198,5.0,6.0,86,0.00,,,0.52,Wunderground v.1.15,2013-01-12 01:11:00,
2013-01-11 20:21:00,49.8,45.8,29.89,SSW,200,4.0,5.0,86,0.00,,,0.52,Wunderground v.1.15,2013-01-12 01:21:00,
2013-01-11 20:26:00,49.6,45.6,29.88,SSW,197,5.0,5.0,86,0.00,,,0.52,Wunderground v.1.15,2013-01-12 01:26:00,
2013-01-11 20:36:00,49.6,45.6,29.87,South,191,5.0,5.0,86,0.00,,,0.52,Wunderground v.1.15,2013-01-12 01:36:00,
2013-01-11 20:41:00,49.5,45.5,29.88,SSW,194,4.0,5.0,86,0.00,,,0.52,Wunderground v.1.15,2013-01-12 01:41:00,
2013-01-11 20:51:00,49.3,45.6,29.87,SSW,200,4.0,4.0,87,0.00,,,0.52,Wunderground v.1.15,2013-01-12 01:51:00,
2013-01-11 20:56:00,49.3,45.6,29.86,SSW,200,4.0,4.0,87,0.00,,,0.52,Wunderground v.1.15,2013-01-12 01:56:00,
2013-01-11 21:06:00,49.2,45.5,29.87,SSW,200,4.0,4.0,87,0.00,,,0.52,Wunderground v.1.15,2013-01-12 02:06:00,
2013-01-11 21:11:00,49.2,45.8,29.87,South,191,5.0,6.0,88,0.00,,,0.52,Wunderground v.1.15,2013-01-12 02:11:00,
2013-01-11 21:21:00,49.6,46.2,29.87,SSW,196,6.0,7.0,88,0.00,,,0.52,Wunderground v.1.15,2013-01-12 02:21:00,
2013-01-11 21:31:00,50.3,46.9,29.86,South,186,7.0,9.0,88,0.00,,,0.52,Wunderground v.1.15,2013-01-12 02:31:00,
2013-01-11 21:36:00,50.7,47.0,29.86,SSW,199,8.0,8.0,87,0.00,,,0.52,Wunderground v.1.15,2013-01-12 02:36:00,
2013-01-11 21:46:00,50.9,46.9,29.86,SSW,194,8.0,8.0,86,0.00,,,0.52,Wunderground v.1.15,2013-01-12 02:46:00,
2013-01-11 21:51:00,50.7,46.7,29.86,SSW,199,8.0,8.0,86,0.00,,,0.52,Wunderground v.1.15,2013-01-12 02:51:00,
2013-01-11 21:56:00,50.6,46.6,29.86,SSW,195,8.0,8.0,86,0.00,,,0.52,Wunderground v.1.15,2013-01-12 02:56:00,
2013-01-11 22:06:00,50.2,46.2,29.87,SSW,204,7.0,8.0,86,0.00,,,0.52,Wunderground v.1.15,2013-01-12 03:06:00,
2013-01-11 22:16:00,49.7,46.0,29.88,SSW,207,6.0,6.0,87,0.00,,,0.52,Wunderground v.1.15,2013-01-12 03:16:00,
2013-01-11 22:21:00,49.5,45.8,29.87,SSW,202,5.0,6.0,87,0.00,,,0.52,Wunderground v.1.15,2013-01-12 03:21:00,
2013-01-11 22:31:00,49.5,46.1,29.86,SSW,193,6.0,7.0,88,0.00,,,0.52,Wunderground v.1.15,2013-01-12 03:31:00,
2013-01-11 22:41:00,49.4,45.7,29.86,South,190,5.0,6.0,87,0.00,,,0.52,Wunderground v.1.15,2013-01-12 03:41:00,
2013-01-11 22:46:00,49.4,46.0,29.86,South,188,6.0,7.0,88,0.00,,,0.52,Wunderground v.1.15,2013-01-12 03:46:00,
2013-01-11 22:56:00,49.5,45.8,29.86,SSW,193,6.0,6.0,87,0.00,,,0.52,Wunderground v.1.15,2013-01-12 03:56:00,
2013-01-11 23:06:00,48.9,45.2,29.86,SSW,192,4.0,4.0,87,0.00,,,0.52,Wunderground v.1.15,2013-01-12 04:06:00,
2013-01-11 23:11:00,48.5,44.8,29.85,South,190,4.0,4.0,87,0.00,,,0.52,Wunderground v.1.15,2013-01-12 04:11:00,
2013-01-11 23:21:00,48.0,44.6,29.85,South,190,4.0,5.0,88,0.00,,,0.52,Wunderground v.1.15,2013-01-12 04:21:00,
2013-01-11 23:26:00,47.7,44.3,29.85,South,190,4.0,4.0,88,0.00,,,0.52,Wunderground v.1.15,2013-01-12 04:26:00,
2013-01-11 23:31:00,47.5,44.1,29.85,South,188,5.0,5.0,88,0.00,,,0.52,Wunderground v.1.15,2013-01-12 04:31:00,
2013-01-11 23:41:00,47.5,44.4,29.85,South,188,5.0,6.0,89,0.00,,,0.52,Wunderground v.1.15,2013-01-12 04:41:00,
2013-01-11 23:46:00,47.7,44.6,29.85,South,190,5.0,5.0,89,0.00,,,0.52,Wunderground v.1.15,2013-01-12 04:46:00,
2013-01-11 23:56:00,47.6,44.2,29.86,South,190,5.0,5.0,88,0.00,,,0.52,Wunderground v.1.15,2013-01-12 04:56:00,